createdAt,value
2024-03-05T00:00:56.479Z,25.27
2024-03-05T00:03:23.773Z,24.63
2024-03-05T00:05:50.949Z,25.10
2024-03-05T00:08:18.195Z,25.80
2024-03-05T00:10:45.203Z,28.27
2024-03-05T00:13:12.142Z,26.97
2024-03-05T00:15:40.976Z,27.73
2024-03-05T00:18:07.941Z,27.47
2024-03-05T00:20:34.903Z,26.63
2024-03-05T00:23:01.825Z,26.03
2024-03-05T00:25:28.744Z,26.77
2024-03-05T00:27:55.965Z,27.23
2024-03-05T00:30:23.610Z,26.07
2024-03-05T00:32:50.576Z,25.53
2024-03-05T00:35:17.429Z,25.60
2024-03-05T00:37:44.360Z,25.50
2024-03-05T00:40:11.634Z,25.97
2024-03-05T00:42:39.383Z,23.83
2024-03-05T00:45:09.945Z,24.27
2024-03-05T00:47:37.417Z,24.70
2024-03-05T00:50:08.513Z,24.30
2024-03-05T00:52:35.770Z,23.90
2024-03-05T00:55:03.024Z,23.77
2024-03-05T00:57:30.562Z,23.27
2024-03-05T00:59:57.722Z,23.77
2024-03-05T01:02:24.978Z,23.83
2024-03-05T01:04:54.414Z,22.83
2024-03-05T01:07:21.791Z,23.97
2024-03-05T01:09:50.326Z,24.20
2024-03-05T01:12:17.948Z,24.57
2024-03-05T01:14:45.918Z,25.43
2024-03-05T01:17:13.912Z,23.37
2024-03-05T01:19:41.215Z,24.27
2024-03-05T01:22:08.295Z,23.77
2024-03-05T01:24:35.171Z,22.70
2024-03-05T01:27:02.039Z,22.60
2024-03-05T01:29:28.967Z,22.53
2024-03-05T01:32:01.241Z,20.60
2024-03-05T01:34:29.392Z,21.20
2024-03-05T01:36:59.350Z,21.37
2024-03-05T01:39:27.301Z,21.00
2024-03-05T01:41:54.567Z,21.07
2024-03-05T01:44:22.044Z,20.67
2024-03-05T01:46:52.539Z,20.63
2024-03-05T01:49:21.655Z,21.07
2024-03-05T01:51:49.770Z,22.20
2024-03-05T01:54:18.560Z,21.47
2024-03-05T01:56:50.496Z,23.17
2024-03-05T01:59:18.903Z,21.17
2024-03-05T02:01:46.900Z,21.47
2024-03-05T02:04:14.024Z,22.60
2024-03-05T02:06:43.466Z,22.47
2024-03-05T02:09:12.713Z,21.67
2024-03-05T02:11:52.223Z,21.63
2024-03-05T02:14:24.495Z,22.00
2024-03-05T02:16:52.094Z,20.73
2024-03-05T02:19:19.188Z,21.27
2024-03-05T02:21:46.310Z,21.57
2024-03-05T02:24:13.942Z,21.97
2024-03-05T02:26:41.210Z,21.40
2024-03-05T02:29:12.056Z,21.97
2024-03-05T02:31:38.943Z,21.87
2024-03-05T02:34:06.977Z,21.20
2024-03-05T02:36:33.975Z,21.83
2024-03-05T02:39:00.765Z,21.77
2024-03-05T02:41:27.590Z,23.03
2024-03-05T02:43:54.483Z,22.50
2024-03-05T02:46:21.459Z,22.30
2024-03-05T02:48:49.224Z,22.10
2024-03-05T02:51:16.170Z,22.17
2024-03-05T02:53:43.040Z,21.40
2024-03-05T02:56:11.498Z,21.10
2024-03-05T02:58:38.745Z,22.63
2024-03-05T03:01:08.997Z,23.00
2024-03-05T03:03:36.439Z,23.93
2024-03-05T03:06:04.267Z,24.57
2024-03-05T03:08:31.430Z,23.23
2024-03-05T03:10:58.630Z,23.43
2024-03-05T03:13:25.746Z,23.17
2024-03-05T03:15:52.670Z,22.67
2024-03-05T03:18:21.432Z,22.60
2024-03-05T03:20:48.344Z,22.53
2024-03-05T03:23:15.384Z,22.20
2024-03-05T03:25:42.617Z,21.27
2024-03-05T03:28:09.645Z,22.70
2024-03-05T03:30:36.576Z,22.80
2024-03-05T03:33:05.972Z,21.87
2024-03-05T03:35:33.112Z,22.73
2024-03-05T03:38:00.184Z,23.37
2024-03-05T03:40:27.243Z,23.57
2024-03-05T03:42:54.191Z,22.60
2024-03-05T03:45:21.349Z,22.67
2024-03-05T03:47:48.567Z,23.50
2024-03-05T03:50:15.621Z,23.77
2024-03-05T03:52:44.602Z,23.17
2024-03-05T03:55:12.657Z,24.80
2024-03-05T03:57:39.747Z,22.93
2024-03-05T04:00:18.621Z,23.17
2024-03-05T04:02:48.139Z,23.17
2024-03-05T04:05:15.176Z,27.17
2024-03-05T04:07:42.183Z,30.03
2024-03-05T04:10:12.133Z,29.43
2024-03-05T04:12:42.630Z,29.30
2024-03-05T04:15:10.013Z,31.97
2024-03-05T04:17:40.283Z,32.47
2024-03-05T04:20:10.633Z,35.10
2024-03-05T04:22:41.252Z,35.37
2024-03-05T04:25:08.871Z,36.00
2024-03-05T04:27:43.180Z,36.60
2024-03-05T04:30:14.001Z,36.20
2024-03-05T04:32:56.344Z,37.30
2024-03-05T04:35:26.765Z,35.73
2024-03-05T04:37:53.708Z,34.87
2024-03-05T04:40:20.650Z,37.80
2024-03-05T04:42:49.140Z,36.57
2024-03-05T04:45:16.847Z,36.60
2024-03-05T04:47:43.760Z,36.17
2024-03-05T04:50:11.038Z,36.73
2024-03-05T04:52:38.112Z,36.17
2024-03-05T04:55:05.344Z,35.60
2024-03-05T04:57:32.182Z,36.63
2024-03-05T04:59:59.379Z,36.53
2024-03-05T05:02:26.252Z,36.27
2024-03-05T05:04:53.130Z,37.00
2024-03-05T05:07:24.600Z,35.47
2024-03-05T05:09:51.539Z,36.00
2024-03-05T05:12:18.823Z,36.60
2024-03-05T05:14:45.641Z,34.43
2024-03-05T05:17:13.767Z,36.10
2024-03-05T05:19:42.325Z,36.07
2024-03-05T05:22:09.241Z,35.57
2024-03-05T05:24:37.694Z,36.33
2024-03-05T05:27:05.083Z,34.97
2024-03-05T05:29:40.224Z,35.93
2024-03-05T05:32:09.375Z,36.33
2024-03-05T05:34:38.647Z,36.57
2024-03-05T05:37:06.315Z,36.10
2024-03-05T05:39:33.920Z,36.93
2024-03-05T05:42:00.910Z,37.17
2024-03-05T05:44:27.751Z,37.80
2024-03-05T05:46:55.511Z,36.60
2024-03-05T05:49:22.612Z,36.17
2024-03-05T05:51:50.192Z,36.63
2024-03-05T05:54:19.937Z,36.60
2024-03-05T05:56:49.740Z,36.40
2024-03-05T05:59:17.290Z,36.43
2024-03-05T06:01:45.175Z,35.33
2024-03-05T06:04:13.141Z,34.20
2024-03-05T06:06:40.413Z,35.60
2024-03-05T06:09:11.197Z,34.47
2024-03-05T06:11:41.238Z,34.30
2024-03-05T06:14:08.410Z,33.30
2024-03-05T06:16:35.742Z,34.13
2024-03-05T06:19:02.839Z,34.37
2024-03-05T06:21:29.928Z,33.67
2024-03-05T06:23:56.824Z,33.97
2024-03-05T06:26:24.456Z,33.20
2024-03-05T06:28:51.426Z,30.67
2024-03-05T06:31:18.432Z,30.57
2024-03-05T06:33:45.620Z,32.17
2024-03-05T06:36:13.596Z,32.33
2024-03-05T06:38:40.829Z,31.03
2024-03-05T06:41:07.963Z,31.63
2024-03-05T06:43:38.279Z,30.67
2024-03-05T06:46:05.883Z,29.10
2024-03-05T06:48:34.733Z,31.37
2024-03-05T06:51:04.925Z,30.27
2024-03-05T06:53:50.834Z,31.53
2024-03-05T06:56:36.319Z,31.67
2024-03-05T06:59:05.142Z,30.40
2024-03-05T07:01:33.967Z,30.80
2024-03-05T07:04:02.779Z,31.60
2024-03-05T07:06:31.699Z,30.03
2024-03-05T07:08:58.603Z,29.90
2024-03-05T07:11:27.710Z,30.20
2024-03-05T07:13:55.346Z,29.50
2024-03-05T07:16:25.440Z,29.27
2024-03-05T07:18:57.095Z,28.70
2024-03-05T07:21:25.859Z,28.53
2024-03-05T07:23:54.670Z,26.77
2024-03-05T07:26:22.453Z,27.33
2024-03-05T07:28:49.882Z,24.70
2024-03-05T07:31:18.675Z,25.30
2024-03-05T07:33:49.038Z,26.77
2024-03-05T07:36:19.171Z,25.73
2024-03-05T07:38:46.269Z,25.47
2024-03-05T07:41:18.406Z,26.23
2024-03-05T07:43:53.694Z,26.07
2024-03-05T07:46:20.847Z,25.23
2024-03-05T07:48:47.891Z,27.00
2024-03-05T07:51:21.614Z,25.50
2024-03-05T07:53:51.939Z,24.30
2024-03-05T07:56:19.052Z,25.03
2024-03-05T07:58:45.971Z,25.10
2024-03-05T08:01:13.220Z,26.17
2024-03-05T08:03:42.607Z,24.07
2024-03-05T08:06:09.569Z,24.37
2024-03-05T08:08:37.162Z,26.00
2024-03-05T08:11:04.457Z,24.83
2024-03-05T08:16:05.442Z,24.83
2024-03-05T08:18:32.673Z,25.67
2024-03-05T08:21:02.143Z,24.60
2024-03-05T08:23:29.005Z,25.77
2024-03-05T08:25:55.995Z,24.70
2024-03-05T08:28:23.002Z,25.87
2024-03-05T08:30:49.862Z,25.67
2024-03-05T08:33:21.281Z,26.03
2024-03-05T08:35:48.595Z,24.20
2024-03-05T08:38:15.632Z,24.83
2024-03-05T08:40:42.633Z,24.97
2024-03-05T08:43:10.639Z,25.03
2024-03-05T08:45:38.392Z,26.67
2024-03-05T08:48:05.633Z,25.83
2024-03-05T08:50:32.597Z,26.33
2024-03-05T08:53:00.268Z,27.07
2024-03-05T08:55:28.191Z,26.33
2024-03-05T08:57:56.343Z,26.70
2024-03-05T09:00:33.180Z,25.43
2024-03-05T09:03:10.918Z,25.60
2024-03-05T09:05:38.144Z,25.53
2024-03-05T09:08:06.744Z,26.40
2024-03-05T09:10:35.460Z,24.93
2024-03-05T09:13:03.139Z,22.73
2024-03-05T09:15:31.563Z,24.60
2024-03-05T09:17:58.740Z,22.97
2024-03-05T09:20:25.649Z,24.37
2024-03-05T09:22:52.603Z,22.27
2024-03-05T09:25:19.663Z,20.93
2024-03-05T09:27:46.991Z,19.23
2024-03-05T09:30:16.932Z,17.63
2024-03-05T09:32:45.541Z,17.67
2024-03-05T09:35:14.578Z,14.23
2024-03-05T09:37:47.053Z,14.07
2024-03-05T09:40:22.130Z,13.53
2024-03-05T09:42:49.256Z,12.60
2024-03-05T09:45:18.348Z,12.83
2024-03-05T09:47:48.442Z,12.10
2024-03-05T09:50:18.296Z,12.60
2024-03-05T09:52:48.486Z,12.40
2024-03-05T09:55:16.764Z,11.87
2024-03-05T09:57:47.434Z,11.30
2024-03-05T10:00:21.974Z,11.17
2024-03-05T10:02:52.194Z,8.27
2024-03-05T10:05:20.481Z,8.60
2024-03-05T10:07:50.956Z,7.37
2024-03-05T10:10:22.583Z,6.33
2024-03-05T10:12:53.084Z,6.47
2024-03-05T10:15:23.474Z,6.60
2024-03-05T10:17:54.118Z,6.70
2024-03-05T10:20:34.017Z,5.13
2024-03-05T10:23:04.053Z,5.37
2024-03-05T10:25:37.016Z,5.73
2024-03-05T10:28:05.426Z,5.93
2024-03-05T10:30:34.766Z,5.40
2024-03-05T10:33:09.302Z,5.03
2024-03-05T10:35:39.341Z,4.17
2024-03-05T10:38:12.088Z,4.30
2024-03-05T10:40:41.202Z,3.93
2024-03-05T10:43:10.333Z,4.13
2024-03-05T10:45:41.830Z,4.30
2024-03-05T10:48:12.004Z,4.27
2024-03-05T10:50:42.064Z,3.70
2024-03-05T10:53:10.342Z,4.40
2024-03-05T10:55:38.938Z,4.03
2024-03-05T10:58:13.365Z,4.07
2024-03-05T11:00:43.349Z,3.73
2024-03-05T11:03:12.150Z,3.20
2024-03-05T11:05:50.060Z,2.80
2024-03-05T11:08:26.889Z,3.00
2024-03-05T11:11:07.429Z,2.73
2024-03-05T11:13:37.402Z,2.97
2024-03-05T11:16:05.888Z,2.50
2024-03-05T11:18:34.728Z,2.70
2024-03-05T11:21:06.228Z,2.43
2024-03-05T11:23:36.030Z,2.50
2024-03-05T11:26:08.223Z,2.40
2024-03-05T11:28:37.310Z,2.70
2024-03-05T11:31:20.617Z,2.63
2024-03-05T11:34:04.288Z,2.50
2024-03-05T11:36:35.302Z,2.50
2024-03-05T11:39:10.742Z,2.63
2024-03-05T11:41:47.711Z,2.40
2024-03-05T11:44:42.594Z,2.57
2024-03-05T11:47:09.755Z,2.50
2024-03-05T11:49:37.621Z,3.87
2024-03-05T11:52:05.312Z,2.80
2024-03-05T11:54:33.646Z,2.60
2024-03-05T11:57:01.844Z,2.83
2024-03-05T11:59:41.378Z,2.30
2024-03-05T12:02:13.507Z,2.53
2024-03-05T12:04:41.130Z,2.60
2024-03-05T12:07:08.770Z,2.60
2024-03-05T12:09:40.415Z,3.80
2024-03-05T12:12:12.480Z,3.80
2024-03-05T12:15:04.721Z,3.40
2024-03-05T12:17:34.400Z,3.83
2024-03-05T12:20:10.600Z,4.47
2024-03-05T12:22:39.169Z,4.10
2024-03-05T12:25:06.666Z,4.50
2024-03-05T12:27:35.530Z,5.07
2024-03-05T12:30:03.478Z,5.30
2024-03-05T12:32:30.568Z,5.10
2024-03-05T12:35:00.406Z,5.23
2024-03-05T12:37:27.871Z,5.10
2024-03-05T12:40:04.206Z,5.47
2024-03-05T12:42:31.114Z,6.23
2024-03-05T12:45:09.066Z,7.00
2024-03-05T12:47:37.317Z,6.20
2024-03-05T12:50:08.292Z,6.00
2024-03-05T12:52:36.177Z,6.40
2024-03-05T12:55:06.284Z,6.47
2024-03-05T12:57:36.586Z,7.13
2024-03-05T13:00:14.307Z,6.60
2024-03-05T13:02:42.733Z,6.57
2024-03-05T13:05:10.200Z,6.70
2024-03-05T13:07:37.862Z,6.97
2024-03-05T13:10:11.187Z,6.07
2024-03-05T13:12:43.544Z,6.00
2024-03-05T13:15:10.880Z,6.37
2024-03-05T13:17:37.871Z,6.33
2024-03-05T13:20:05.658Z,5.50
2024-03-05T13:22:32.875Z,4.90
2024-03-05T13:24:59.728Z,5.50
2024-03-05T13:27:27.638Z,3.97
2024-03-05T13:30:05.551Z,4.20
2024-03-05T13:32:39.358Z,4.07
2024-03-05T13:35:08.401Z,3.90
2024-03-05T13:37:39.366Z,3.30
2024-03-05T13:40:08.138Z,3.80
2024-03-05T13:42:37.346Z,3.10
2024-03-05T13:45:13.932Z,3.37
2024-03-05T13:47:41.316Z,3.20
2024-03-05T13:50:13.169Z,2.47
2024-03-05T13:52:49.705Z,3.17
2024-03-05T13:55:17.220Z,2.10
2024-03-05T13:57:44.122Z,2.10
2024-03-05T14:00:20.872Z,2.23
2024-03-05T14:02:48.345Z,2.40
2024-03-05T14:05:15.725Z,2.30
2024-03-05T14:07:42.730Z,2.57
2024-03-05T14:10:11.743Z,2.00
2024-03-05T14:12:41.912Z,2.10
2024-03-05T14:15:18.365Z,2.00
2024-03-05T14:17:45.358Z,1.77
2024-03-05T14:20:14.477Z,2.10
2024-03-05T14:22:43.196Z,2.07
2024-03-05T14:25:12.707Z,2.00
2024-03-05T14:27:43.736Z,1.80
2024-03-05T14:30:15.201Z,1.80
2024-03-05T14:32:44.257Z,2.10
2024-03-05T14:35:12.186Z,1.90
2024-03-05T14:37:39.976Z,1.73
2024-03-05T14:40:11.630Z,1.50
2024-03-05T14:42:39.181Z,1.30
2024-03-05T14:45:06.771Z,1.30
2024-03-05T14:47:33.831Z,2.63
2024-03-05T14:50:00.938Z,2.03
2024-03-05T14:52:27.935Z,1.70
2024-03-05T14:54:55.383Z,1.67
2024-03-05T14:57:22.330Z,1.50
2024-03-05T14:59:49.274Z,1.30
2024-03-05T15:02:16.262Z,1.47
2024-03-05T15:04:43.542Z,1.70
2024-03-05T15:07:10.787Z,1.50
2024-03-05T15:09:37.672Z,1.60
2024-03-05T15:12:05.345Z,1.57
2024-03-05T15:14:32.414Z,1.50
2024-03-05T15:17:00.516Z,1.30
2024-03-05T15:19:29.439Z,1.37
2024-03-05T15:21:58.706Z,1.40
2024-03-05T15:24:25.738Z,1.40
2024-03-05T15:27:01.217Z,1.60
2024-03-05T15:29:32.658Z,1.70
2024-03-05T15:32:02.402Z,1.30
2024-03-05T15:34:30.265Z,1.30
2024-03-05T15:36:57.303Z,1.57
2024-03-05T15:39:24.262Z,1.30
2024-03-05T15:41:51.226Z,1.23
2024-03-05T15:44:19.548Z,1.47
2024-03-05T15:46:46.563Z,1.40
2024-03-05T15:49:13.496Z,1.70
2024-03-05T15:51:40.309Z,1.33
2024-03-05T15:54:07.255Z,1.40
2024-03-05T15:56:47.802Z,2.80
2024-03-05T15:59:33.153Z,2.10
2024-03-05T16:02:00.291Z,1.77
2024-03-05T16:04:48.843Z,1.53
2024-03-05T16:07:15.048Z,1.40
2024-03-05T16:09:42.018Z,1.60
2024-03-05T16:12:12.257Z,1.50
2024-03-05T16:14:41.901Z,1.90
2024-03-05T16:17:14.300Z,1.70
2024-03-05T16:19:42.687Z,1.50
2024-03-05T16:22:10.219Z,1.83
2024-03-05T16:24:37.303Z,1.63
2024-03-05T16:27:04.392Z,1.50
2024-03-05T16:29:31.316Z,1.33
2024-03-05T16:31:59.920Z,1.30
2024-03-05T16:34:27.055Z,1.60
2024-03-05T16:36:54.529Z,1.80
2024-03-05T16:39:21.586Z,1.93
2024-03-05T16:41:48.467Z,2.03
2024-03-05T16:44:15.499Z,2.30
2024-03-05T16:46:42.623Z,2.27
2024-03-05T16:49:09.894Z,3.10
2024-03-05T16:51:41.107Z,2.60
2024-03-05T16:54:08.299Z,4.47
2024-03-05T16:56:35.342Z,3.60
2024-03-05T16:59:05.984Z,16.20
2024-03-05T17:01:33.064Z,4.77
2024-03-05T17:04:01.796Z,3.93
2024-03-05T17:06:29.736Z,4.47
2024-03-05T17:08:57.593Z,4.70
2024-03-05T17:11:25.194Z,4.40
2024-03-05T17:13:52.327Z,4.80
2024-03-05T17:16:20.295Z,4.40
2024-03-05T17:18:47.496Z,4.53
2024-03-05T17:21:14.646Z,3.87
2024-03-05T17:23:46.302Z,4.70
2024-03-05T17:26:16.313Z,3.93
2024-03-05T17:28:43.773Z,3.90
2024-03-05T17:31:12.982Z,4.03
2024-03-05T17:33:40.497Z,5.60
2024-03-05T17:36:07.886Z,3.70
2024-03-05T17:38:34.966Z,5.00
2024-03-05T17:41:04.654Z,4.30
2024-03-05T17:43:32.086Z,5.43
2024-03-05T17:45:59.810Z,4.70
2024-03-05T17:48:28.538Z,4.70
2024-03-05T17:50:55.746Z,4.37
2024-03-05T17:53:23.047Z,4.03
2024-03-05T17:55:50.126Z,3.80
2024-03-05T17:58:20.047Z,3.63
2024-03-05T18:00:47.450Z,3.70
2024-03-05T18:03:15.622Z,3.47
2024-03-05T18:05:44.048Z,3.70
2024-03-05T18:08:11.136Z,4.17
2024-03-05T18:10:38.878Z,4.23
2024-03-05T18:13:07.507Z,4.37
2024-03-05T18:15:35.457Z,4.63
2024-03-05T18:18:03.689Z,4.90
2024-03-05T18:20:31.078Z,4.63
2024-03-05T18:23:01.819Z,15.20
2024-03-05T18:25:35.619Z,7.10
2024-03-05T18:28:03.834Z,4.20
2024-03-05T18:30:35.298Z,3.97
2024-03-05T18:33:07.602Z,4.53
2024-03-05T18:35:35.673Z,5.90
2024-03-05T18:38:04.690Z,6.30
2024-03-05T18:40:34.343Z,5.37
2024-03-05T18:43:01.796Z,5.23
2024-03-05T18:45:31.238Z,4.23
2024-03-05T18:48:06.018Z,3.93
2024-03-05T18:50:37.131Z,3.80
2024-03-05T18:53:07.037Z,5.43
2024-03-05T18:55:37.496Z,7.03
2024-03-05T18:58:08.180Z,6.63
2024-03-05T19:00:37.772Z,5.90
2024-03-05T19:03:06.245Z,5.00
2024-03-05T19:05:35.015Z,5.20
2024-03-05T19:08:02.576Z,5.27
2024-03-05T19:10:31.828Z,5.43
2024-03-05T19:12:59.800Z,5.63
2024-03-05T19:15:28.168Z,4.03
2024-03-05T19:17:55.792Z,4.30
2024-03-05T19:20:22.988Z,3.70
2024-03-05T19:22:50.034Z,2.53
2024-03-05T19:25:19.062Z,3.30
2024-03-05T19:27:46.365Z,3.47
2024-03-05T19:30:18.176Z,3.37
2024-03-05T19:32:46.423Z,2.80
2024-03-05T19:35:18.585Z,2.80
2024-03-05T19:37:50.981Z,3.20
2024-03-05T19:40:19.112Z,3.43
2024-03-05T19:42:58.245Z,3.80
2024-03-05T19:45:29.371Z,4.50
2024-03-05T19:47:56.527Z,4.37
2024-03-05T19:50:27.919Z,3.30
2024-03-05T19:52:56.711Z,4.10
2024-03-05T19:55:24.173Z,5.33
2024-03-05T19:57:51.647Z,6.07
2024-03-05T20:00:20.463Z,7.17
2024-03-05T20:02:50.869Z,5.70
2024-03-05T20:05:18.670Z,5.50
2024-03-05T20:07:46.480Z,6.10
2024-03-05T20:10:13.760Z,6.13
2024-03-05T20:12:40.873Z,6.30
2024-03-05T20:15:14.842Z,6.93
2024-03-05T20:17:43.767Z,5.70
2024-03-05T20:20:18.106Z,6.07
2024-03-05T20:22:48.739Z,6.13
2024-03-05T20:25:24.774Z,4.97
2024-03-05T20:27:54.428Z,4.40
2024-03-05T20:30:24.144Z,5.03
2024-03-05T20:32:52.956Z,4.53
2024-03-05T20:35:21.768Z,4.47
2024-03-05T20:37:50.337Z,4.90
2024-03-05T20:40:22.679Z,4.83
2024-03-05T20:42:49.726Z,5.03
2024-03-05T20:45:18.163Z,5.60
2024-03-05T20:47:45.280Z,6.23
2024-03-05T20:50:13.126Z,5.67
2024-03-05T20:52:40.510Z,5.17
2024-03-05T20:55:12.096Z,5.30
2024-03-05T20:57:39.963Z,5.00
2024-03-05T21:00:13.354Z,5.03
2024-03-05T21:02:41.660Z,5.47
2024-03-05T21:05:09.821Z,5.50
2024-03-05T21:07:37.655Z,5.03
2024-03-05T21:10:09.624Z,5.33
2024-03-05T21:12:39.179Z,5.57
2024-03-05T21:15:11.098Z,5.47
2024-03-05T21:17:39.101Z,5.23
2024-03-05T21:20:07.895Z,5.50
2024-03-05T21:22:35.811Z,5.77
2024-03-05T21:25:07.080Z,5.57
2024-03-05T21:27:38.680Z,6.10
2024-03-05T21:30:07.964Z,6.73
2024-03-05T21:32:37.351Z,6.40
2024-03-05T21:35:08.318Z,7.70
2024-03-05T21:37:36.784Z,7.83
2024-03-05T21:40:07.727Z,7.90
2024-03-05T21:42:35.283Z,8.00
2024-03-05T21:45:02.506Z,7.73
2024-03-05T21:47:29.559Z,8.07
2024-03-05T21:49:56.585Z,8.10
2024-03-05T21:52:23.491Z,8.00
2024-03-05T21:54:50.452Z,9.70
2024-03-05T21:57:17.365Z,9.70
2024-03-05T21:59:44.402Z,8.63
2024-03-05T22:02:11.294Z,8.60
2024-03-05T22:04:38.357Z,9.00
2024-03-05T22:07:05.405Z,11.17
2024-03-05T22:09:33.175Z,12.40
2024-03-05T22:12:03.059Z,11.33
2024-03-05T22:14:32.442Z,10.57
2024-03-05T22:16:59.405Z,10.30
2024-03-05T22:19:26.424Z,9.60
2024-03-05T22:21:53.322Z,9.73
2024-03-05T22:24:20.283Z,9.23
2024-03-05T22:26:49.937Z,10.67
2024-03-05T22:29:17.045Z,9.67
2024-03-05T22:31:44.094Z,9.37
2024-03-05T22:34:11.080Z,9.80
2024-03-05T22:36:37.986Z,9.57
2024-03-05T22:39:06.614Z,9.87
2024-03-05T22:41:33.570Z,10.43
2024-03-05T22:44:00.599Z,9.63
2024-03-05T22:46:27.584Z,10.20
2024-03-05T22:48:54.891Z,8.77
2024-03-05T22:51:22.021Z,9.03
2024-03-05T22:53:48.993Z,9.20
2024-03-05T22:56:16.006Z,9.33
2024-03-05T22:58:42.965Z,9.20
2024-03-05T23:01:11.863Z,9.30
2024-03-05T23:03:38.852Z,9.07
2024-03-05T23:06:12.027Z,9.70
2024-03-05T23:08:43.393Z,9.27
2024-03-05T23:11:11.598Z,8.90
2024-03-05T23:13:38.861Z,8.80
2024-03-05T23:16:06.806Z,8.30
2024-03-05T23:18:34.030Z,8.70
2024-03-05T23:21:01.378Z,9.47
2024-03-05T23:23:28.677Z,10.10
2024-03-05T23:25:55.634Z,9.83
2024-03-05T23:28:22.686Z,9.30
2024-03-05T23:30:50.339Z,8.67
2024-03-05T23:33:17.549Z,8.50
2024-03-05T23:35:44.536Z,9.33
2024-03-05T23:38:11.529Z,9.30
2024-03-05T23:40:38.597Z,8.77
2024-03-05T23:43:06.263Z,8.40
2024-03-05T23:45:33.745Z,8.53
2024-03-05T23:48:00.930Z,9.63
2024-03-05T23:50:27.917Z,8.80
2024-03-05T23:52:55.010Z,8.47
2024-03-05T23:55:22.147Z,11.30
2024-03-05T23:57:49.094Z,15.17
